sensor_id;sensor_type;location;lat;lon;timestamp;P1;durP1;ratioP1;P2;durP2;ratioP2
3625;SDS011;1827;50.534;8.316;2023-01-20T00:01:21;45.30;;;19.07;;
3625;SDS011;1827;50.534;8.316;2023-01-20T00:03:48;45.33;;;18.47;;
3625;SDS011;1827;50.534;8.316;2023-01-20T00:06:14;50.73;;;21.60;;
3625;SDS011;1827;50.534;8.316;2023-01-20T00:08:41;49.70;;;20.33;;
3625;SDS011;1827;50.534;8.316;2023-01-20T00:11:07;51.37;;;21.80;;
3625;SDS011;1827;50.534;8.316;2023-01-20T00:13:35;49.30;;;22.07;;
3625;SDS011;1827;50.534;8.316;2023-01-20T00:16:03;43.50;;;19.40;;
3625;SDS011;1827;50.534;8.316;2023-01-20T00:18:38;43.80;;;18.30;;
3625;SDS011;1827;50.534;8.316;2023-01-20T00:21:17;40.90;;;16.60;;
3625;SDS011;1827;50.534;8.316;2023-01-20T00:23:47;39.47;;;16.60;;
3625;SDS011;1827;50.534;8.316;2023-01-20T00:26:23;43.10;;;17.93;;
3625;SDS011;1827;50.534;8.316;2023-01-20T00:28:57;40.60;;;16.40;;
3625;SDS011;1827;50.534;8.316;2023-01-20T00:31:30;45.40;;;18.40;;
3625;SDS011;1827;50.534;8.316;2023-01-20T00:34:04;46.40;;;18.97;;
3625;SDS011;1827;50.534;8.316;2023-01-20T00:36:36;41.73;;;16.67;;
3625;SDS011;1827;50.534;8.316;2023-01-20T00:39:13;38.07;;;18.07;;
3625;SDS011;1827;50.534;8.316;2023-01-20T00:41:44;37.43;;;16.03;;
3625;SDS011;1827;50.534;8.316;2023-01-20T00:44:23;41.97;;;16.43;;
3625;SDS011;1827;50.534;8.316;2023-01-20T00:46:56;40.27;;;15.83;;
3625;SDS011;1827;50.534;8.316;2023-01-20T00:49:32;39.80;;;15.47;;
3625;SDS011;1827;50.534;8.316;2023-01-20T00:52:09;37.90;;;15.50;;
3625;SDS011;1827;50.534;8.316;2023-01-20T00:54:42;45.10;;;16.80;;
3625;SDS011;1827;50.534;8.316;2023-01-20T00:57:20;38.77;;;16.20;;
3625;SDS011;1827;50.534;8.316;2023-01-20T00:59:52;43.53;;;17.27;;
3625;SDS011;1827;50.534;8.316;2023-01-20T01:02:23;44.40;;;19.07;;
3625;SDS011;1827;50.534;8.316;2023-01-20T01:04:55;43.80;;;17.40;;
3625;SDS011;1827;50.534;8.316;2023-01-20T01:07:26;36.40;;;16.87;;
3625;SDS011;1827;50.534;8.316;2023-01-20T01:09:55;38.13;;;16.00;;
3625;SDS011;1827;50.534;8.316;2023-01-20T01:12:21;39.37;;;16.60;;
3625;SDS011;1827;50.534;8.316;2023-01-20T01:14:47;43.77;;;18.20;;
3625;SDS011;1827;50.534;8.316;2023-01-20T01:17:12;39.67;;;17.23;;
3625;SDS011;1827;50.534;8.316;2023-01-20T01:19:38;39.87;;;16.67;;
3625;SDS011;1827;50.534;8.316;2023-01-20T01:22:04;39.37;;;15.67;;
3625;SDS011;1827;50.534;8.316;2023-01-20T01:24:29;35.63;;;16.67;;
3625;SDS011;1827;50.534;8.316;2023-01-20T01:26:55;42.63;;;16.57;;
3625;SDS011;1827;50.534;8.316;2023-01-20T01:29:21;39.80;;;16.57;;
3625;SDS011;1827;50.534;8.316;2023-01-20T01:31:47;41.90;;;16.87;;
3625;SDS011;1827;50.534;8.316;2023-01-20T01:34:13;42.70;;;19.03;;
3625;SDS011;1827;50.534;8.316;2023-01-20T01:36:39;43.67;;;17.70;;
3625;SDS011;1827;50.534;8.316;2023-01-20T01:39:05;46.47;;;18.53;;
3625;SDS011;1827;50.534;8.316;2023-01-20T01:41:30;42.97;;;18.80;;
3625;SDS011;1827;50.534;8.316;2023-01-20T01:46:41;43.00;;;18.77;;
3625;SDS011;1827;50.534;8.316;2023-01-20T01:49:12;40.83;;;17.50;;
3625;SDS011;1827;50.534;8.316;2023-01-20T01:51:41;43.70;;;16.83;;
3625;SDS011;1827;50.534;8.316;2023-01-20T01:54:13;37.00;;;16.37;;
3625;SDS011;1827;50.534;8.316;2023-01-20T01:56:42;37.60;;;16.87;;
3625;SDS011;1827;50.534;8.316;2023-01-20T01:59:09;56.83;;;18.50;;
3625;SDS011;1827;50.534;8.316;2023-01-20T02:01:37;39.50;;;16.37;;
3625;SDS011;1827;50.534;8.316;2023-01-20T02:04:12;39.57;;;16.67;;
3625;SDS011;1827;50.534;8.316;2023-01-20T02:06:44;48.30;;;18.73;;
3625;SDS011;1827;50.534;8.316;2023-01-20T02:09:14;39.60;;;16.70;;
3625;SDS011;1827;50.534;8.316;2023-01-20T02:11:41;35.43;;;16.20;;
3625;SDS011;1827;50.534;8.316;2023-01-20T02:14:19;37.23;;;15.13;;
3625;SDS011;1827;50.534;8.316;2023-01-20T02:16:55;39.03;;;16.23;;
3625;SDS011;1827;50.534;8.316;2023-01-20T02:33:16;31.27;;;13.67;;
3625;SDS011;1827;50.534;8.316;2023-01-20T02:36:02;34.17;;;14.50;;
3625;SDS011;1827;50.534;8.316;2023-01-20T02:38:48;38.80;;;17.13;;
3625;SDS011;1827;50.534;8.316;2023-01-20T02:41:27;36.97;;;15.23;;
3625;SDS011;1827;50.534;8.316;2023-01-20T02:44:21;38.80;;;17.20;;
3625;SDS011;1827;50.534;8.316;2023-01-20T02:47:09;41.90;;;16.10;;
3625;SDS011;1827;50.534;8.316;2023-01-20T02:49:49;43.13;;;15.47;;
3625;SDS011;1827;50.534;8.316;2023-01-20T02:52:34;38.77;;;15.77;;
3625;SDS011;1827;50.534;8.316;2023-01-20T02:55:07;39.83;;;16.60;;
3625;SDS011;1827;50.534;8.316;2023-01-20T02:57:45;37.87;;;16.50;;
3625;SDS011;1827;50.534;8.316;2023-01-20T03:00:22;35.17;;;15.00;;
3625;SDS011;1827;50.534;8.316;2023-01-20T03:02:55;38.37;;;14.93;;
3625;SDS011;1827;50.534;8.316;2023-01-20T03:05:29;34.60;;;14.53;;
3625;SDS011;1827;50.534;8.316;2023-01-20T03:08:04;34.27;;;12.90;;
3625;SDS011;1827;50.534;8.316;2023-01-20T03:10:34;34.90;;;15.40;;
3625;SDS011;1827;50.534;8.316;2023-01-20T03:13:14;38.10;;;14.90;;
3625;SDS011;1827;50.534;8.316;2023-01-20T03:18:27;40.33;;;14.67;;
3625;SDS011;1827;50.534;8.316;2023-01-20T03:20:55;36.87;;;15.03;;
3625;SDS011;1827;50.534;8.316;2023-01-20T03:23:23;38.50;;;15.60;;
3625;SDS011;1827;50.534;8.316;2023-01-20T03:25:52;37.47;;;14.73;;
3625;SDS011;1827;50.534;8.316;2023-01-20T03:28:19;33.90;;;15.43;;
3625;SDS011;1827;50.534;8.316;2023-01-20T03:30:45;36.93;;;14.70;;
3625;SDS011;1827;50.534;8.316;2023-01-20T03:33:12;34.53;;;13.77;;
3625;SDS011;1827;50.534;8.316;2023-01-20T03:35:40;33.03;;;14.30;;
3625;SDS011;1827;50.534;8.316;2023-01-20T03:38:07;40.00;;;15.33;;
3625;SDS011;1827;50.534;8.316;2023-01-20T03:40:36;37.27;;;14.67;;
3625;SDS011;1827;50.534;8.316;2023-01-20T03:43:16;34.10;;;14.70;;
3625;SDS011;1827;50.534;8.316;2023-01-20T03:45:56;36.40;;;13.53;;
3625;SDS011;1827;50.534;8.316;2023-01-20T03:48:37;33.43;;;14.83;;
3625;SDS011;1827;50.534;8.316;2023-01-20T03:51:19;31.07;;;14.00;;
3625;SDS011;1827;50.534;8.316;2023-01-20T03:54:05;36.67;;;14.93;;
3625;SDS011;1827;50.534;8.316;2023-01-20T03:56:48;36.23;;;14.47;;
3625;SDS011;1827;50.534;8.316;2023-01-20T03:59:31;36.90;;;13.97;;
3625;SDS011;1827;50.534;8.316;2023-01-20T04:02:03;41.23;;;14.60;;
3625;SDS011;1827;50.534;8.316;2023-01-20T04:04:32;37.93;;;13.40;;
3625;SDS011;1827;50.534;8.316;2023-01-20T04:07:06;34.90;;;15.17;;
3625;SDS011;1827;50.534;8.316;2023-01-20T04:09:41;49.97;;;15.50;;
3625;SDS011;1827;50.534;8.316;2023-01-20T04:12:12;42.07;;;14.30;;
3625;SDS011;1827;50.534;8.316;2023-01-20T04:14:39;36.60;;;14.30;;
3625;SDS011;1827;50.534;8.316;2023-01-20T04:17:07;35.40;;;14.37;;
3625;SDS011;1827;50.534;8.316;2023-01-20T04:19:36;31.77;;;13.80;;
3625;SDS011;1827;50.534;8.316;2023-01-20T04:22:06;34.20;;;14.90;;
3625;SDS011;1827;50.534;8.316;2023-01-20T04:27:50;47.90;;;18.17;;
3625;SDS011;1827;50.534;8.316;2023-01-20T04:30:17;43.63;;;16.47;;
3625;SDS011;1827;50.534;8.316;2023-01-20T04:32:46;42.80;;;15.80;;
3625;SDS011;1827;50.534;8.316;2023-01-20T04:35:14;38.63;;;14.40;;
3625;SDS011;1827;50.534;8.316;2023-01-20T04:37:46;40.70;;;14.90;;
3625;SDS011;1827;50.534;8.316;2023-01-20T04:40:13;36.40;;;14.97;;
3625;SDS011;1827;50.534;8.316;2023-01-20T04:42:39;35.90;;;15.07;;
3625;SDS011;1827;50.534;8.316;2023-01-20T04:45:05;38.37;;;15.27;;
3625;SDS011;1827;50.534;8.316;2023-01-20T04:47:32;40.93;;;15.10;;
3625;SDS011;1827;50.534;8.316;2023-01-20T04:49:58;41.90;;;14.43;;
3625;SDS011;1827;50.534;8.316;2023-01-20T04:52:24;34.17;;;14.60;;
3625;SDS011;1827;50.534;8.316;2023-01-20T04:54:49;36.80;;;14.17;;
3625;SDS011;1827;50.534;8.316;2023-01-20T04:57:15;36.03;;;14.37;;
3625;SDS011;1827;50.534;8.316;2023-01-20T04:59:41;34.07;;;14.60;;
3625;SDS011;1827;50.534;8.316;2023-01-20T05:02:07;37.17;;;16.97;;
3625;SDS011;1827;50.534;8.316;2023-01-20T05:04:32;39.47;;;15.63;;
3625;SDS011;1827;50.534;8.316;2023-01-20T05:06:58;35.70;;;14.13;;
3625;SDS011;1827;50.534;8.316;2023-01-20T05:09:24;34.70;;;14.67;;
3625;SDS011;1827;50.534;8.316;2023-01-20T05:11:50;36.27;;;14.90;;
3625;SDS011;1827;50.534;8.316;2023-01-20T05:14:15;37.13;;;14.73;;
3625;SDS011;1827;50.534;8.316;2023-01-20T05:16:42;37.03;;;13.60;;
3625;SDS011;1827;50.534;8.316;2023-01-20T05:19:09;35.90;;;13.83;;
3625;SDS011;1827;50.534;8.316;2023-01-20T05:21:36;30.53;;;13.37;;
3625;SDS011;1827;50.534;8.316;2023-01-20T05:24:01;32.63;;;13.30;;
3625;SDS011;1827;50.534;8.316;2023-01-20T05:26:27;36.07;;;14.97;;
3625;SDS011;1827;50.534;8.316;2023-01-20T05:28:53;34.43;;;14.53;;
3625;SDS011;1827;50.534;8.316;2023-01-20T05:31:18;35.17;;;13.83;;
3625;SDS011;1827;50.534;8.316;2023-01-20T05:33:44;31.57;;;13.47;;
3625;SDS011;1827;50.534;8.316;2023-01-20T05:36:10;37.97;;;12.50;;
3625;SDS011;1827;50.534;8.316;2023-01-20T05:38:36;33.20;;;13.60;;
3625;SDS011;1827;50.534;8.316;2023-01-20T05:41:03;38.13;;;14.20;;
3625;SDS011;1827;50.534;8.316;2023-01-20T05:43:30;35.90;;;13.00;;
3625;SDS011;1827;50.534;8.316;2023-01-20T05:45:56;39.17;;;13.00;;
3625;SDS011;1827;50.534;8.316;2023-01-20T05:48:22;33.77;;;12.90;;
3625;SDS011;1827;50.534;8.316;2023-01-20T05:50:48;31.23;;;13.07;;
3625;SDS011;1827;50.534;8.316;2023-01-20T05:53:14;32.00;;;13.40;;
3625;SDS011;1827;50.534;8.316;2023-01-20T05:55:39;32.30;;;13.33;;
3625;SDS011;1827;50.534;8.316;2023-01-20T05:58:05;32.77;;;12.57;;
3625;SDS011;1827;50.534;8.316;2023-01-20T06:00:31;30.47;;;13.33;;
3625;SDS011;1827;50.534;8.316;2023-01-20T06:02:57;40.90;;;15.17;;
3625;SDS011;1827;50.534;8.316;2023-01-20T06:05:23;35.23;;;13.77;;
3625;SDS011;1827;50.534;8.316;2023-01-20T06:07:49;33.90;;;14.33;;
3625;SDS011;1827;50.534;8.316;2023-01-20T06:10:15;35.23;;;13.60;;
3625;SDS011;1827;50.534;8.316;2023-01-20T06:12:42;33.57;;;12.67;;
3625;SDS011;1827;50.534;8.316;2023-01-20T06:15:08;34.20;;;14.23;;
3625;SDS011;1827;50.534;8.316;2023-01-20T06:17:35;33.43;;;12.90;;
3625;SDS011;1827;50.534;8.316;2023-01-20T06:20:01;31.83;;;12.70;;
3625;SDS011;1827;50.534;8.316;2023-01-20T06:22:28;29.87;;;12.40;;
3625;SDS011;1827;50.534;8.316;2023-01-20T06:24:54;35.07;;;13.23;;
3625;SDS011;1827;50.534;8.316;2023-01-20T06:27:20;32.73;;;12.80;;
3625;SDS011;1827;50.534;8.316;2023-01-20T06:29:46;33.07;;;13.00;;
3625;SDS011;1827;50.534;8.316;2023-01-20T06:32:11;29.23;;;12.33;;
3625;SDS011;1827;50.534;8.316;2023-01-20T06:34:37;30.23;;;12.87;;
3625;SDS011;1827;50.534;8.316;2023-01-20T06:37:03;32.40;;;13.20;;
3625;SDS011;1827;50.534;8.316;2023-01-20T06:39:28;37.73;;;14.17;;
3625;SDS011;1827;50.534;8.316;2023-01-20T06:41:58;36.10;;;15.10;;
3625;SDS011;1827;50.534;8.316;2023-01-20T06:44:24;31.73;;;11.77;;
3625;SDS011;1827;50.534;8.316;2023-01-20T06:46:50;28.97;;;12.20;;
3625;SDS011;1827;50.534;8.316;2023-01-20T06:49:17;38.80;;;14.93;;
3625;SDS011;1827;50.534;8.316;2023-01-20T06:51:43;29.40;;;13.13;;
3625;SDS011;1827;50.534;8.316;2023-01-20T06:54:12;31.50;;;13.73;;
3625;SDS011;1827;50.534;8.316;2023-01-20T06:56:38;37.27;;;14.43;;
3625;SDS011;1827;50.534;8.316;2023-01-20T06:59:04;31.70;;;13.73;;
3625;SDS011;1827;50.534;8.316;2023-01-20T07:01:30;45.10;;;19.60;;
3625;SDS011;1827;50.534;8.316;2023-01-20T07:03:55;37.90;;;16.13;;
3625;SDS011;1827;50.534;8.316;2023-01-20T07:06:26;36.33;;;15.83;;
3625;SDS011;1827;50.534;8.316;2023-01-20T07:08:57;39.03;;;15.07;;
3625;SDS011;1827;50.534;8.316;2023-01-20T07:11:23;48.07;;;17.70;;
3625;SDS011;1827;50.534;8.316;2023-01-20T07:13:49;46.60;;;20.33;;
3625;SDS011;1827;50.534;8.316;2023-01-20T07:16:15;46.97;;;20.20;;
3625;SDS011;1827;50.534;8.316;2023-01-20T07:18:41;53.30;;;22.23;;
3625;SDS011;1827;50.534;8.316;2023-01-20T07:21:08;49.37;;;21.63;;
3625;SDS011;1827;50.534;8.316;2023-01-20T07:23:35;50.40;;;20.63;;
3625;SDS011;1827;50.534;8.316;2023-01-20T07:26:02;50.30;;;20.67;;
3625;SDS011;1827;50.534;8.316;2023-01-20T07:28:30;45.27;;;18.10;;
3625;SDS011;1827;50.534;8.316;2023-01-20T07:31:07;42.13;;;19.10;;
3625;SDS011;1827;50.534;8.316;2023-01-20T07:33:37;36.57;;;16.07;;
3625;SDS011;1827;50.534;8.316;2023-01-20T07:36:03;32.33;;;14.50;;
3625;SDS011;1827;50.534;8.316;2023-01-20T07:38:31;32.33;;;15.40;;
3625;SDS011;1827;50.534;8.316;2023-01-20T07:40:57;33.20;;;15.00;;
3625;SDS011;1827;50.534;8.316;2023-01-20T07:43:24;32.60;;;14.23;;
3625;SDS011;1827;50.534;8.316;2023-01-20T07:45:53;34.73;;;14.70;;
3625;SDS011;1827;50.534;8.316;2023-01-20T07:48:22;34.37;;;15.20;;
3625;SDS011;1827;50.534;8.316;2023-01-20T07:50:59;36.00;;;15.43;;
3625;SDS011;1827;50.534;8.316;2023-01-20T07:53:30;32.90;;;14.90;;
3625;SDS011;1827;50.534;8.316;2023-01-20T07:56:03;38.43;;;16.10;;
3625;SDS011;1827;50.534;8.316;2023-01-20T07:58:30;36.17;;;15.77;;
3625;SDS011;1827;50.534;8.316;2023-01-20T08:00:56;37.90;;;16.53;;
3625;SDS011;1827;50.534;8.316;2023-01-20T08:03:22;38.77;;;16.20;;
3625;SDS011;1827;50.534;8.316;2023-01-20T08:05:48;32.47;;;13.70;;
3625;SDS011;1827;50.534;8.316;2023-01-20T08:08:16;38.47;;;16.70;;
3625;SDS011;1827;50.534;8.316;2023-01-20T08:10:44;39.33;;;17.00;;
3625;SDS011;1827;50.534;8.316;2023-01-20T08:13:11;38.23;;;17.00;;
3625;SDS011;1827;50.534;8.316;2023-01-20T08:15:37;43.00;;;17.60;;
3625;SDS011;1827;50.534;8.316;2023-01-20T08:18:03;41.33;;;17.20;;
3625;SDS011;1827;50.534;8.316;2023-01-20T08:20:28;42.40;;;18.90;;
3625;SDS011;1827;50.534;8.316;2023-01-20T08:22:54;52.27;;;22.03;;
3625;SDS011;1827;50.534;8.316;2023-01-20T08:25:20;45.93;;;20.70;;
3625;SDS011;1827;50.534;8.316;2023-01-20T08:27:46;45.87;;;19.93;;
3625;SDS011;1827;50.534;8.316;2023-01-20T08:30:13;43.17;;;18.83;;
3625;SDS011;1827;50.534;8.316;2023-01-20T08:32:39;38.33;;;15.60;;
3625;SDS011;1827;50.534;8.316;2023-01-20T08:35:05;39.20;;;16.73;;
3625;SDS011;1827;50.534;8.316;2023-01-20T08:37:31;39.07;;;15.63;;
3625;SDS011;1827;50.534;8.316;2023-01-20T08:39:56;34.87;;;14.73;;
3625;SDS011;1827;50.534;8.316;2023-01-20T08:42:32;40.50;;;15.93;;
3625;SDS011;1827;50.534;8.316;2023-01-20T08:45:13;43.93;;;15.27;;
3625;SDS011;1827;50.534;8.316;2023-01-20T08:47:42;34.90;;;15.63;;
3625;SDS011;1827;50.534;8.316;2023-01-20T08:50:19;38.30;;;16.43;;
3625;SDS011;1827;50.534;8.316;2023-01-20T08:52:48;42.03;;;18.23;;
3625;SDS011;1827;50.534;8.316;2023-01-20T08:55:14;39.00;;;16.47;;
3625;SDS011;1827;50.534;8.316;2023-01-20T08:57:44;38.60;;;17.40;;
3625;SDS011;1827;50.534;8.316;2023-01-20T09:00:19;37.47;;;17.33;;
3625;SDS011;1827;50.534;8.316;2023-01-20T09:02:45;36.47;;;16.23;;
3625;SDS011;1827;50.534;8.316;2023-01-20T09:05:11;32.23;;;14.83;;
3625;SDS011;1827;50.534;8.316;2023-01-20T09:07:38;35.93;;;16.97;;
3625;SDS011;1827;50.534;8.316;2023-01-20T09:10:03;33.53;;;15.07;;
3625;SDS011;1827;50.534;8.316;2023-01-20T09:12:30;33.33;;;14.93;;
3625;SDS011;1827;50.534;8.316;2023-01-20T09:14:58;31.23;;;15.40;;
3625;SDS011;1827;50.534;8.316;2023-01-20T09:17:26;33.20;;;14.87;;
3625;SDS011;1827;50.534;8.316;2023-01-20T09:19:55;38.93;;;16.07;;
3625;SDS011;1827;50.534;8.316;2023-01-20T09:22:23;33.67;;;16.70;;
3625;SDS011;1827;50.534;8.316;2023-01-20T09:24:49;37.10;;;16.40;;
3625;SDS011;1827;50.534;8.316;2023-01-20T09:30:37;36.53;;;16.70;;
3625;SDS011;1827;50.534;8.316;2023-01-20T09:33:10;40.80;;;16.27;;
3625;SDS011;1827;50.534;8.316;2023-01-20T09:36:13;49.13;;;17.80;;
3625;SDS011;1827;50.534;8.316;2023-01-20T09:38:44;43.03;;;18.73;;
3625;SDS011;1827;50.534;8.316;2023-01-20T09:41:51;44.00;;;18.30;;
3625;SDS011;1827;50.534;8.316;2023-01-20T09:44:52;36.57;;;15.90;;
3625;SDS011;1827;50.534;8.316;2023-01-20T09:47:29;41.10;;;13.80;;
3625;SDS011;1827;50.534;8.316;2023-01-20T09:53:59;43.43;;;17.50;;
3625;SDS011;1827;50.534;8.316;2023-01-20T09:56:42;42.50;;;17.90;;
3625;SDS011;1827;50.534;8.316;2023-01-20T09:59:19;34.53;;;15.13;;
3625;SDS011;1827;50.534;8.316;2023-01-20T10:01:52;34.30;;;14.83;;
3625;SDS011;1827;50.534;8.316;2023-01-20T10:15:12;44.27;;;17.80;;
3625;SDS011;1827;50.534;8.316;2023-01-20T10:19:32;43.17;;;18.47;;
3625;SDS011;1827;50.534;8.316;2023-01-20T10:29:42;34.70;;;14.87;;
3625;SDS011;1827;50.534;8.316;2023-01-20T10:32:42;42.27;;;19.57;;
3625;SDS011;1827;50.534;8.316;2023-01-20T10:35:51;36.23;;;16.93;;
3625;SDS011;1827;50.534;8.316;2023-01-20T10:42:35;38.43;;;18.00;;
3625;SDS011;1827;50.534;8.316;2023-01-20T10:45:00;42.93;;;20.37;;
3625;SDS011;1827;50.534;8.316;2023-01-20T10:47:40;40.23;;;18.37;;
3625;SDS011;1827;50.534;8.316;2023-01-20T10:50:29;35.67;;;15.90;;
3625;SDS011;1827;50.534;8.316;2023-01-20T10:53:26;40.20;;;16.57;;
3625;SDS011;1827;50.534;8.316;2023-01-20T10:56:07;35.00;;;16.13;;
3625;SDS011;1827;50.534;8.316;2023-01-20T11:00:05;36.07;;;15.87;;
3625;SDS011;1827;50.534;8.316;2023-01-20T11:02:21;33.53;;;14.63;;
3625;SDS011;1827;50.534;8.316;2023-01-20T11:04:58;33.30;;;15.30;;
3625;SDS011;1827;50.534;8.316;2023-01-20T11:07:34;32.73;;;14.20;;
3625;SDS011;1827;50.534;8.316;2023-01-20T11:10:11;32.23;;;14.20;;
3625;SDS011;1827;50.534;8.316;2023-01-20T11:12:42;30.43;;;13.10;;
3625;SDS011;1827;50.534;8.316;2023-01-20T11:15:30;31.00;;;14.07;;
3625;SDS011;1827;50.534;8.316;2023-01-20T11:20:58;34.57;;;14.63;;
3625;SDS011;1827;50.534;8.316;2023-01-20T11:26:06;34.63;;;14.90;;
3625;SDS011;1827;50.534;8.316;2023-01-20T11:28:57;33.60;;;15.70;;
3625;SDS011;1827;50.534;8.316;2023-01-20T11:31:38;36.23;;;15.80;;
3625;SDS011;1827;50.534;8.316;2023-01-20T11:37:18;32.90;;;15.07;;
3625;SDS011;1827;50.534;8.316;2023-01-20T11:42:18;34.87;;;15.63;;
3625;SDS011;1827;50.534;8.316;2023-01-20T11:47:21;37.30;;;16.83;;
3625;SDS011;1827;50.534;8.316;2023-01-20T11:57:47;33.20;;;15.73;;
3625;SDS011;1827;50.534;8.316;2023-01-20T12:00:30;34.37;;;15.60;;
3625;SDS011;1827;50.534;8.316;2023-01-20T12:08:33;34.73;;;16.00;;
3625;SDS011;1827;50.534;8.316;2023-01-20T12:11:11;48.57;;;21.50;;
3625;SDS011;1827;50.534;8.316;2023-01-20T12:18:16;38.33;;;17.83;;
3625;SDS011;1827;50.534;8.316;2023-01-20T12:24:32;38.30;;;16.87;;
3625;SDS011;1827;50.534;8.316;2023-01-20T12:27:48;38.10;;;16.67;;
3625;SDS011;1827;50.534;8.316;2023-01-20T12:30:40;34.87;;;14.80;;
3625;SDS011;1827;50.534;8.316;2023-01-20T12:33:18;52.00;;;20.80;;
3625;SDS011;1827;50.534;8.316;2023-01-20T12:36:23;43.73;;;17.30;;
3625;SDS011;1827;50.534;8.316;2023-01-20T12:47:09;45.47;;;19.07;;
3625;SDS011;1827;50.534;8.316;2023-01-20T12:55:49;50.67;;;21.43;;
3625;SDS011;1827;50.534;8.316;2023-01-20T13:09:48;44.40;;;19.10;;
3625;SDS011;1827;50.534;8.316;2023-01-20T13:12:30;50.70;;;20.77;;
3625;SDS011;1827;50.534;8.316;2023-01-20T13:18:02;52.83;;;21.27;;
3625;SDS011;1827;50.534;8.316;2023-01-20T13:20:45;52.90;;;21.03;;
3625;SDS011;1827;50.534;8.316;2023-01-20T13:23:17;50.03;;;21.20;;
3625;SDS011;1827;50.534;8.316;2023-01-20T13:25:49;56.23;;;22.10;;
3625;SDS011;1827;50.534;8.316;2023-01-20T13:28:17;57.10;;;23.60;;
3625;SDS011;1827;50.534;8.316;2023-01-20T13:30:46;61.43;;;24.97;;
3625;SDS011;1827;50.534;8.316;2023-01-20T13:35:56;62.33;;;25.70;;
3625;SDS011;1827;50.534;8.316;2023-01-20T13:38:30;53.10;;;23.17;;
3625;SDS011;1827;50.534;8.316;2023-01-20T13:40:59;58.20;;;23.80;;
3625;SDS011;1827;50.534;8.316;2023-01-20T13:48:36;56.50;;;21.73;;
3625;SDS011;1827;50.534;8.316;2023-01-20T13:53:39;52.53;;;21.90;;
3625;SDS011;1827;50.534;8.316;2023-01-20T13:58:55;58.30;;;23.67;;
3625;SDS011;1827;50.534;8.316;2023-01-20T14:01:24;64.90;;;24.00;;
3625;SDS011;1827;50.534;8.316;2023-01-20T14:04:04;71.47;;;26.97;;
3625;SDS011;1827;50.534;8.316;2023-01-20T14:06:30;67.43;;;24.53;;
3625;SDS011;1827;50.534;8.316;2023-01-20T14:08:59;70.77;;;26.47;;
3625;SDS011;1827;50.534;8.316;2023-01-20T14:11:27;68.13;;;26.37;;
3625;SDS011;1827;50.534;8.316;2023-01-20T14:18:59;77.27;;;27.90;;
3625;SDS011;1827;50.534;8.316;2023-01-20T14:21:29;71.80;;;25.73;;
3625;SDS011;1827;50.534;8.316;2023-01-20T14:24:03;67.70;;;25.70;;
3625;SDS011;1827;50.534;8.316;2023-01-20T14:26:29;73.90;;;26.00;;
3625;SDS011;1827;50.534;8.316;2023-01-20T14:28:59;68.40;;;26.67;;
3625;SDS011;1827;50.534;8.316;2023-01-20T14:31:34;69.33;;;28.00;;
3625;SDS011;1827;50.534;8.316;2023-01-20T14:36:49;69.20;;;25.63;;
3625;SDS011;1827;50.534;8.316;2023-01-20T14:39:22;65.63;;;26.33;;
3625;SDS011;1827;50.534;8.316;2023-01-20T14:41:54;73.77;;;27.37;;
3625;SDS011;1827;50.534;8.316;2023-01-20T14:44:24;64.77;;;25.40;;
3625;SDS011;1827;50.534;8.316;2023-01-20T14:46:54;67.83;;;25.80;;
3625;SDS011;1827;50.534;8.316;2023-01-20T14:49:21;62.57;;;24.03;;
3625;SDS011;1827;50.534;8.316;2023-01-20T14:51:52;62.53;;;25.17;;
3625;SDS011;1827;50.534;8.316;2023-01-20T14:54:28;61.20;;;24.50;;
3625;SDS011;1827;50.534;8.316;2023-01-20T14:56:57;63.37;;;25.20;;
3625;SDS011;1827;50.534;8.316;2023-01-20T14:59:24;62.10;;;24.03;;
3625;SDS011;1827;50.534;8.316;2023-01-20T15:01:54;58.10;;;23.80;;
3625;SDS011;1827;50.534;8.316;2023-01-20T15:04:23;62.63;;;24.73;;
3625;SDS011;1827;50.534;8.316;2023-01-20T15:06:52;62.83;;;23.50;;
3625;SDS011;1827;50.534;8.316;2023-01-20T15:09:27;64.40;;;24.13;;
3625;SDS011;1827;50.534;8.316;2023-01-20T15:15:09;62.17;;;24.60;;
3625;SDS011;1827;50.534;8.316;2023-01-20T15:17:40;66.13;;;24.30;;
3625;SDS011;1827;50.534;8.316;2023-01-20T15:20:29;65.60;;;24.20;;
3625;SDS011;1827;50.534;8.316;2023-01-20T15:22:57;66.60;;;25.00;;
3625;SDS011;1827;50.534;8.316;2023-01-20T15:25:24;64.30;;;26.17;;
3625;SDS011;1827;50.534;8.316;2023-01-20T15:27:51;71.70;;;28.20;;
3625;SDS011;1827;50.534;8.316;2023-01-20T15:30:18;71.27;;;27.30;;
3625;SDS011;1827;50.534;8.316;2023-01-20T15:32:48;75.10;;;29.50;;
3625;SDS011;1827;50.534;8.316;2023-01-20T15:35:17;85.23;;;31.37;;
3625;SDS011;1827;50.534;8.316;2023-01-20T15:37:45;79.43;;;30.27;;
3625;SDS011;1827;50.534;8.316;2023-01-20T15:40:15;82.80;;;30.70;;
3625;SDS011;1827;50.534;8.316;2023-01-20T15:42:42;104.33;;;36.03;;
3625;SDS011;1827;50.534;8.316;2023-01-20T15:45:10;98.13;;;35.80;;
3625;SDS011;1827;50.534;8.316;2023-01-20T15:47:38;86.27;;;31.77;;
3625;SDS011;1827;50.534;8.316;2023-01-20T15:50:05;82.37;;;30.60;;
3625;SDS011;1827;50.534;8.316;2023-01-20T15:52:45;84.63;;;31.20;;
3625;SDS011;1827;50.534;8.316;2023-01-20T15:55:12;74.83;;;30.03;;
3625;SDS011;1827;50.534;8.316;2023-01-20T15:57:39;78.73;;;30.70;;
3625;SDS011;1827;50.534;8.316;2023-01-20T16:00:06;88.47;;;30.30;;
3625;SDS011;1827;50.534;8.316;2023-01-20T16:02:39;77.57;;;29.70;;
3625;SDS011;1827;50.534;8.316;2023-01-20T16:05:05;77.47;;;30.57;;
3625;SDS011;1827;50.534;8.316;2023-01-20T16:07:30;84.40;;;29.37;;
3625;SDS011;1827;50.534;8.316;2023-01-20T16:09:56;81.50;;;30.70;;
3625;SDS011;1827;50.534;8.316;2023-01-20T16:12:22;87.87;;;29.33;;
3625;SDS011;1827;50.534;8.316;2023-01-20T16:14:47;91.90;;;31.37;;
3625;SDS011;1827;50.534;8.316;2023-01-20T16:17:14;88.13;;;29.77;;
3625;SDS011;1827;50.534;8.316;2023-01-20T16:19:43;87.97;;;33.43;;
3625;SDS011;1827;50.534;8.316;2023-01-20T16:22:09;92.50;;;34.67;;
3625;SDS011;1827;50.534;8.316;2023-01-20T16:24:35;87.07;;;32.70;;
3625;SDS011;1827;50.534;8.316;2023-01-20T16:27:02;95.50;;;33.10;;
3625;SDS011;1827;50.534;8.316;2023-01-20T16:29:37;88.90;;;32.80;;
3625;SDS011;1827;50.534;8.316;2023-01-20T16:32:02;103.80;;;34.17;;
3625;SDS011;1827;50.534;8.316;2023-01-20T16:34:28;96.17;;;36.23;;
3625;SDS011;1827;50.534;8.316;2023-01-20T16:36:54;83.83;;;34.07;;
3625;SDS011;1827;50.534;8.316;2023-01-20T16:39:19;77.87;;;27.00;;
3625;SDS011;1827;50.534;8.316;2023-01-20T16:41:46;89.80;;;32.50;;
3625;SDS011;1827;50.534;8.316;2023-01-20T16:44:14;87.67;;;34.27;;
3625;SDS011;1827;50.534;8.316;2023-01-20T16:46:40;132.13;;;47.23;;
3625;SDS011;1827;50.534;8.316;2023-01-20T16:49:06;92.57;;;35.80;;
3625;SDS011;1827;50.534;8.316;2023-01-20T16:51:32;89.33;;;35.30;;
3625;SDS011;1827;50.534;8.316;2023-01-20T16:53:57;86.87;;;31.17;;
3625;SDS011;1827;50.534;8.316;2023-01-20T16:56:24;92.20;;;34.63;;
3625;SDS011;1827;50.534;8.316;2023-01-20T16:58:55;97.40;;;31.10;;
3625;SDS011;1827;50.534;8.316;2023-01-20T17:01:23;91.90;;;32.80;;
3625;SDS011;1827;50.534;8.316;2023-01-20T17:04:00;88.93;;;34.43;;
3625;SDS011;1827;50.534;8.316;2023-01-20T17:06:28;82.87;;;33.00;;
3625;SDS011;1827;50.534;8.316;2023-01-20T17:08:56;93.03;;;33.90;;
3625;SDS011;1827;50.534;8.316;2023-01-20T17:11:24;106.23;;;40.60;;
3625;SDS011;1827;50.534;8.316;2023-01-20T17:13:55;146.87;;;63.30;;
3625;SDS011;1827;50.534;8.316;2023-01-20T17:16:22;85.70;;;34.57;;
3625;SDS011;1827;50.534;8.316;2023-01-20T17:18:51;105.37;;;44.13;;
3625;SDS011;1827;50.534;8.316;2023-01-20T17:21:18;105.57;;;44.50;;
3625;SDS011;1827;50.534;8.316;2023-01-20T17:23:48;93.43;;;37.10;;
3625;SDS011;1827;50.534;8.316;2023-01-20T17:26:18;88.67;;;37.63;;
3625;SDS011;1827;50.534;8.316;2023-01-20T17:28:45;98.20;;;43.37;;
3625;SDS011;1827;50.534;8.316;2023-01-20T17:31:11;81.87;;;33.50;;
3625;SDS011;1827;50.534;8.316;2023-01-20T17:33:36;90.00;;;36.40;;